Time;durP1;ratioP1;P1;durP2;ratioP2;P2;SDS_P1;SDS_P2;PMS_P1;PMS_P2;Temp;Humidity;BMP_temperature;BMP_pressure;BME280_temperature;BME280_humidity;BME280_pressure;Samples;Min_cycle;Max_cycle;Signal;HPM_P1;HPM_P2
2024/03/08 00:03:33;;;;;;;6.65;4.90;;;;;;;17.01;52.67;101694.38;10446872;28;20107;-62
2024/03/08 00:08:34;;;;;;;6.10;4.75;;;;;;;17.02;52.79;101677.22;10447007;28;20029;-62
2024/03/08 00:13:34;;;;;;;7.63;4.75;;;;;;;16.98;51.53;101682.31;10447790;28;20307;-63
2024/03/08 00:18:35;;;;;;;6.22;4.65;;;;;;;16.99;52.16;101678.56;10448526;28;20021;-62
2024/03/08 00:23:35;;;;;;;6.32;4.72;;;;;;;17.01;52.71;101676.41;10445791;28;20060;-62
2024/03/08 00:28:36;;;;;;;6.05;5.25;;;;;;;17.02;52.63;101671.88;10446196;28;20622;-63
2024/03/08 00:33:36;;;;;;;6.40;4.97;;;;;;;17.01;52.49;101668.38;10447561;28;20067;-63
2024/03/08 00:38:37;;;;;;;5.88;4.60;;;;;;;17.01;52.09;101671.06;10447607;28;20044;-63
2024/03/08 00:43:37;;;;;;;6.77;4.60;;;;;;;16.99;51.58;101662.50;10445426;28;20021;-62
2024/03/08 00:48:37;;;;;;;7.07;5.20;;;;;;;17.00;52.57;101658.75;10445820;28;20382;-63
2024/03/08 00:53:38;;;;;;;6.70;4.88;;;;;;;17.02;50.65;101653.13;10445069;28;20374;-61
2024/03/08 00:58:38;;;;;;;6.83;4.50;;;;;;;17.02;51.21;101643.19;10446433;28;20021;-63
2024/03/08 01:03:38;;;;;;;6.00;4.70;;;;;;;17.04;51.64;101638.38;10445087;28;20278;-62
2024/03/08 01:08:42;;;;;;;5.57;4.25;;;;;;;17.02;50.29;101632.47;10444838;28;20877;-62
2024/03/08 01:13:42;;;;;;;6.75;4.75;;;;;;;17.02;51.88;101624.44;10445285;28;20095;-61
2024/03/08 01:18:43;;;;;;;6.00;4.67;;;;;;;17.01;51.61;101619.34;10446036;28;20056;-62
2024/03/08 01:23:43;;;;;;;5.05;3.97;;;;;;;17.00;52.08;101607.84;10445058;28;20338;-62
2024/03/08 01:28:44;;;;;;;5.73;4.97;;;;;;;17.03;50.71;101601.13;10445463;28;20269;-62
2024/03/08 01:33:45;;;;;;;7.50;5.03;;;;;;;17.02;51.64;101592.28;10444832;28;20778;-63
2024/03/08 01:38:45;;;;;;;6.18;5.07;;;;;;;17.03;50.91;101582.38;10444953;28;20367;-62
2024/03/08 01:43:46;;;;;;;6.23;5.10;;;;;;;17.01;51.15;101595.25;10444898;28;20025;-62
2024/03/08 01:48:46;;;;;;;5.22;4.60;;;;;;;17.00;51.07;101589.06;10426681;28;20679;-62
2024/03/08 01:53:47;;;;;;;5.60;4.38;;;;;;;17.00;52.25;101583.72;10444732;28;20232;-62
2024/03/08 01:58:48;;;;;;;5.78;4.10;;;;;;;16.99;50.95;101576.75;10443453;28;20365;-62
2024/03/08 02:03:49;;;;;;;6.27;5.10;;;;;;;16.99;50.31;101573.28;10443747;28;20031;-62
2024/03/08 02:08:49;;;;;;;6.75;5.32;;;;;;;16.98;52.10;101569.78;10442209;28;20293;-62
2024/03/08 02:13:50;;;;;;;6.30;5.13;;;;;;;17.00;50.77;101567.66;10437958;28;20420;-62
2024/03/08 02:18:50;;;;;;;6.17;4.20;;;;;;;17.01;51.43;101561.22;10443819;28;20029;-62
2024/03/08 02:23:52;;;;;;;5.77;4.47;;;;;;;17.00;50.89;101548.88;10443154;28;20278;-62
2024/03/08 02:28:52;;;;;;;6.22;4.57;;;;;;;16.98;51.64;101548.34;10443270;28;20279;-62
2024/03/08 02:33:52;;;;;;;5.78;4.50;;;;;;;16.99;51.37;101543.81;10442040;28;20029;-62
2024/03/08 02:38:55;;;;;;;6.38;4.60;;;;;;;17.00;50.78;101534.69;10443267;28;20021;-62
2024/03/08 02:43:55;;;;;;;4.93;3.92;;;;;;;16.99;50.69;101523.16;10443159;28;20078;-62
2024/03/08 02:48:56;;;;;;;5.03;3.83;;;;;;;17.00;52.26;101526.66;10443301;28;20469;-62
2024/03/08 02:53:57;;;;;;;6.50;4.72;;;;;;;16.99;50.63;101520.50;10442626;28;20275;-62
2024/03/08 02:58:57;;;;;;;6.25;4.40;;;;;;;17.00;51.14;101524.78;10441586;28;20017;-59
2024/03/08 03:03:58;;;;;;;5.40;4.60;;;;;;;17.01;50.46;101506.81;10442742;28;20457;-62
2024/03/08 03:08:58;;;;;;;6.45;4.50;;;;;;;16.99;51.57;101504.41;10443110;28;20291;-62
2024/03/08 03:13:58;;;;;;;6.70;4.20;;;;;;;17.02;51.24;101495.84;10441896;28;20041;-62
2024/03/08 03:19:01;;;;;;;6.50;5.22;;;;;;;17.00;49.83;101494.50;10444927;28;20330;-62
2024/03/08 03:24:02;;;;;;;5.63;5.05;;;;;;;17.01;50.63;101490.75;10450278;28;20111;-62
2024/03/08 03:29:03;;;;;;;4.60;3.97;;;;;;;16.99;50.63;101488.34;10448644;28;20025;-62
2024/03/08 03:34:03;;;;;;;6.03;4.53;;;;;;;16.99;50.83;101484.84;10449670;28;20298;-62
2024/03/08 03:39:22;;;;;;;5.95;4.18;;;;;;;17.00;50.73;101481.09;10449809;28;20029;-63
2024/03/08 03:44:23;;;;;;;5.72;4.10;;;;;;;17.02;50.44;101473.59;10447836;28;20488;-62
2024/03/08 03:49:23;;;;;;;4.95;4.45;;;;;;;16.99;50.61;101466.91;10449219;28;20029;-63
2024/03/08 03:54:24;;;;;;;6.00;4.20;;;;;;;17.02;50.13;101470.94;10448627;28;20388;-62
2024/03/08 03:59:24;;;;;;;6.23;4.43;;;;;;;16.98;50.86;101470.66;10448903;28;20271;-62
2024/03/08 04:04:24;;;;;;;5.33;3.87;;;;;;;16.97;50.20;101462.91;10446778;28;20284;-62
2024/03/08 04:09:25;;;;;;;5.03;3.77;;;;;;;16.96;51.09;101456.72;10449468;28;20291;-62
2024/03/08 04:14:25;;;;;;;4.63;4.10;;;;;;;17.01;51.47;101458.59;10447969;28;20643;-61
2024/03/08 04:19:26;;;;;;;7.30;5.23;;;;;;;16.99;49.53;101455.38;10447143;28;20279;-62
2024/03/08 04:24:27;;;;;;;5.75;4.35;;;;;;;16.95;50.71;101447.09;10447879;28;20274;-62
2024/03/08 04:29:27;;;;;;;5.38;4.18;;;;;;;16.95;50.87;101447.09;10447422;28;20029;-63
2024/03/08 04:34:28;;;;;;;5.60;4.22;;;;;;;16.98;50.12;101440.38;10447099;28;20021;-62
2024/03/08 04:39:29;;;;;;;5.93;4.20;;;;;;;16.95;50.34;101428.34;10447487;28;20031;-63
2024/03/08 04:44:30;;;;;;;5.80;4.70;;;;;;;17.03;49.59;101435.03;10445313;28;20060;-63
2024/03/08 04:49:31;;;;;;;5.45;4.88;;;;;;;16.98;49.50;101435.03;10447898;28;20072;-63
2024/03/08 04:54:31;;;;;;;5.03;4.10;;;;;;;16.98;50.43;101427.78;10447678;28;20104;-63
2024/03/08 04:59:31;;;;;;;5.03;4.20;;;;;;;17.00;50.10;101428.34;10449468;28;20027;-63
2024/03/08 05:04:32;;;;;;;6.40;4.47;;;;;;;16.99;50.02;101423.25;10447641;28;20281;-62
2024/03/08 05:09:32;;;;;;;5.90;4.47;;;;;;;17.00;49.63;101416.81;10447613;28;20025;-63
2024/03/08 05:14:32;;;;;;;5.72;4.53;;;;;;;17.00;49.70;101414.13;10447045;28;20103;-62
2024/03/08 05:19:33;;;;;;;6.13;4.97;;;;;;;17.02;49.22;101418.16;10447566;28;20031;-63
2024/03/08 05:24:34;;;;;;;6.57;4.40;;;;;;;17.11;48.95;101419.22;10448295;28;20468;-63
2024/03/08 05:29:34;;;;;;;5.37;4.00;;;;;;;17.11;50.31;101410.38;10448175;28;20029;-62
2024/03/08 05:34:34;;;;;;;6.00;3.73;;;;;;;17.03;49.66;101405.56;10445826;28;20353;-62
2024/03/08 05:39:35;;;;;;;5.38;4.45;;;;;;;17.09;50.12;101397.25;10446986;28;20263;-62
2024/03/08 05:44:35;;;;;;;7.30;4.65;;;;;;;17.08;50.64;101401.00;10447589;28;20040;-62
2024/03/08 05:49:35;;;;;;;6.47;4.40;;;;;;;17.06;49.94;101395.13;10448936;28;20061;-62
2024/03/08 05:54:36;;;;;;;5.70;4.30;;;;;;;17.09;50.11;101394.56;10447601;28;20021;-62
2024/03/08 05:59:36;;;;;;;11.03;5.33;;;;;;;17.03;51.21;101387.59;10446798;28;20294;-62
2024/03/08 06:04:36;;;;;;;11.90;5.73;;;;;;;17.14;50.00;101383.84;10449030;28;20286;-62
2024/03/08 06:09:37;;;;;;;13.00;5.83;;;;;;;17.22;52.68;101375.28;10447760;28;20361;-62
2024/03/08 06:14:37;;;;;;;13.18;5.60;;;;;;;17.27;52.37;101379.00;10448075;28;20866;-62
2024/03/08 06:19:38;;;;;;;15.95;5.85;;;;;;;17.27;52.06;101379.00;10446643;28;20094;-63
2024/03/08 06:24:38;;;;;;;14.03;5.83;;;;;;;17.20;51.54;101377.44;10448011;28;20029;-65
2024/03/08 06:29:39;;;;;;;13.67;5.30;;;;;;;17.20;52.11;101372.06;10447408;28;20751;-63
2024/03/08 06:34:39;;;;;;;14.73;5.97;;;;;;;17.15;51.00;101373.94;10448112;28;20283;-64
2024/03/08 06:39:39;;;;;;;26.47;7.90;;;;;;;17.13;50.75;101370.72;10446597;28;20021;-62
2024/03/08 06:44:48;;;;;;;13.10;6.97;;;;;;;17.14;51.21;101372.31;10440238;28;20623;-62
2024/03/08 06:49:49;;;;;;;15.33;7.60;;;;;;;17.15;51.19;101366.69;10433538;28;20102;-61
2024/03/08 06:54:50;;;;;;;18.63;7.57;;;;;;;17.21;51.26;101354.09;10447996;28;20423;-63
2024/03/08 06:59:52;;;;;;;21.48;7.50;;;;;;;17.18;50.78;101363.50;10452789;28;20013;-61
2024/03/08 07:04:52;;;;;;;24.45;7.65;;;;;;;17.17;51.24;101367.25;10454125;28;20120;-62
2024/03/08 07:09:54;;;;;;;17.60;6.93;;;;;;;17.20;50.67;101366.69;10453055;28;20579;-61
2024/03/08 07:14:55;;;;;;;31.48;8.85;;;;;;;17.17;50.08;101369.13;10454861;28;20047;-59
2024/03/08 07:19:57;;;;;;;12.73;6.45;;;;;;;17.12;50.86;101363.75;10453947;28;20032;-58
2024/03/08 07:30:52;;;;;;;13.07;6.83;;;;;;;17.05;50.24;101352.50;10438686;28;20029;-59
2024/03/08 07:35:40;;;;;;;14.63;5.93;;;;;;;17.01;50.60;101349.56;10451750;28;20049;-60
2024/03/08 07:40:44;;;;;;;13.63;6.35;;;;;;;17.01;50.70;101343.41;10453289;28;20020;-60
2024/03/08 07:45:44;;;;;;;14.43;6.70;;;;;;;17.03;50.80;101338.56;10453697;28;20033;-60
2024/03/08 07:50:44;;;;;;;13.13;6.50;;;;;;;17.03;50.82;101328.66;10453258;28;20368;-59
2024/03/08 07:55:45;;;;;;;26.33;7.77;;;;;;;16.97;51.78;101331.63;10452161;28;20295;-59
2024/03/08 08:00:45;;;;;;;9.43;5.73;;;;;;;16.99;50.81;101324.13;10452696;28;20273;-60
2024/03/08 08:05:46;;;;;;;11.25;6.30;;;;;;;16.97;50.94;101320.91;10451352;28;20792;-61
2024/03/08 08:10:47;;;;;;;12.77;6.43;;;;;;;16.94;51.47;101317.72;10448573;28;20048;-60
2024/03/08 08:15:47;;;;;;;15.95;8.20;;;;;;;16.97;50.96;101316.34;10450508;28;20025;-60
2024/03/08 08:20:47;;;;;;;13.00;5.70;;;;;;;17.00;50.57;101312.34;10448502;28;20078;-61
2024/03/08 08:25:49;;;;;;;12.57;6.60;;;;;;;16.95;51.24;101305.91;10452129;28;20844;-61
2024/03/08 08:30:50;;;;;;;12.25;6.60;;;;;;;16.93;51.44;101301.91;10450047;28;20027;-61
2024/03/08 08:35:53;;;;;;;15.70;6.32;;;;;;;16.87;52.33;101293.06;10451594;28;20536;-61
2024/03/08 08:40:53;;;;;;;13.10;6.70;;;;;;;16.83;51.64;101288.53;10451116;28;20021;-61
2024/03/08 08:45:55;;;;;;;16.98;7.20;;;;;;;16.78;51.40;101283.94;10451539;28;20025;-61
2024/03/08 08:50:55;;;;;;;10.05;6.28;;;;;;;16.78;50.41;101272.44;10446464;28;20108;-61
2024/03/08 08:55:56;;;;;;;10.60;6.83;;;;;;;16.76;51.84;101262.00;10448512;28;20059;-62
2024/03/08 09:00:56;;;;;;;10.43;6.30;;;;;;;16.77;52.17;101273.50;10448550;28;20287;-61
2024/03/08 09:05:57;;;;;;;10.65;6.50;;;;;;;16.79;51.16;101252.63;10447082;28;20107;-61
2024/03/08 09:10:59;;;;;;;13.73;7.47;;;;;;;16.74;52.49;101247.28;10447090;28;20059;-61
2024/03/08 09:16:00;;;;;;;14.20;6.75;;;;;;;16.77;51.74;101244.84;10448318;28;20317;-61
2024/03/08 09:21:00;;;;;;;8.73;7.30;;;;;;;16.79;51.41;101242.72;10448057;28;20024;-61
2024/03/08 09:26:01;;;;;;;10.23;6.93;;;;;;;16.79;50.95;101242.72;10448075;28;20025;-61
2024/03/08 09:31:01;;;;;;;12.65;6.97;;;;;;;16.75;51.64;101228.25;10448515;28;20033;-61
2024/03/08 09:36:03;;;;;;;9.57;5.85;;;;;;;16.75;51.77;101227.47;10448915;28;20029;-61
2024/03/08 09:41:04;;;;;;;8.63;6.50;;;;;;;16.74;52.15;101215.94;10448504;28;20440;-61
2024/03/08 09:46:06;;;;;;;10.73;6.30;;;;;;;16.72;51.38;101217.31;10448993;28;20032;-61
2024/03/08 09:51:07;;;;;;;9.13;6.43;;;;;;;16.74;51.56;101205.25;10447068;28;20039;-61
2024/03/08 09:56:08;;;;;;;8.65;6.82;;;;;;;16.72;50.56;101198.56;10447596;28;20048;-61
2024/03/08 10:01:08;;;;;;;8.15;6.53;;;;;;;16.71;50.96;101189.72;10445435;28;20025;-61
2024/03/08 10:06:10;;;;;;;7.73;6.20;;;;;;;16.71;51.58;101176.34;10447077;28;20687;-61
2024/03/08 10:11:11;;;;;;;9.90;6.43;;;;;;;16.71;51.23;101170.97;10444733;28;20858;-61
2024/03/08 10:16:12;;;;;;;14.52;6.35;;;;;;;16.72;51.34;101161.06;10446571;28;20129;-62
2024/03/08 10:21:13;;;;;;;8.70;6.32;;;;;;;16.74;51.59;101157.03;10445526;28;20039;-61
2024/03/08 10:26:14;;;;;;;8.57;6.28;;;;;;;16.76;51.78;101149.53;10445777;28;20021;-59
2024/03/08 10:31:16;;;;;;;9.20;6.80;;;;;;;16.77;51.63;101143.09;10444799;28;20119;-59
2024/03/08 10:36:16;;;;;;;13.15;6.53;;;;;;;16.82;51.44;101135.06;10444245;28;20024;-60
2024/03/08 10:41:16;;;;;;;11.90;6.40;;;;;;;16.81;51.86;101124.59;10444507;28;20560;-59
2024/03/08 10:46:54;;;;;;;10.98;6.22;;;;;;;16.80;51.67;101113.09;10446016;28;20282;-60
2024/03/08 10:51:56;;;;;;;8.88;6.28;;;;;;;16.81;50.79;101105.84;10440302;28;20041;-60
2024/03/08 10:56:56;;;;;;;9.52;5.95;;;;;;;16.82;50.78;101086.84;10445219;28;20021;-60
2024/03/08 11:01:56;;;;;;;9.67;6.33;;;;;;;16.83;51.09;101079.63;10446933;28;20025;-60
2024/03/08 11:07:02;;;;;;;11.07;6.63;;;;;;;16.86;50.65;101071.03;10446456;28;20673;-61
2024/03/08 11:12:33;;;;;;;8.68;5.72;;;;;;;16.83;51.15;101064.34;10443873;28;20704;-61
2024/03/08 11:17:34;;;;;;;9.73;6.15;;;;;;;16.83;51.87;101044.81;10444024;28;20068;-60
2024/03/08 11:22:35;;;;;;;8.65;6.57;;;;;;;16.81;51.90;101026.34;10445573;28;20114;-61
2024/03/08 11:27:36;;;;;;;9.68;6.65;;;;;;;16.86;50.60;101028.19;10445606;28;20024;-60
2024/03/08 11:32:38;;;;;;;14.35;7.05;;;;;;;16.87;50.47;101016.38;10445076;28;20028;-61
2024/03/08 11:37:38;;;;;;;13.30;7.85;;;;;;;16.90;51.19;101002.44;10444888;28;20100;-61
2024/03/08 11:42:39;;;;;;;16.27;7.57;;;;;;;16.96;50.29;100998.66;10449982;28;20025;-60
2024/03/08 11:47:46;;;;;;;12.35;6.65;;;;;;;16.98;50.96;100993.81;10452400;28;20025;-61
2024/03/08 11:52:46;;;;;;;13.30;6.82;;;;;;;16.93;51.24;100989.31;10452598;28;20079;-61
2024/03/08 11:57:47;;;;;;;14.43;7.22;;;;;;;16.92;51.08;100979.66;10453450;28;20020;-61
2024/03/08 12:03:00;;;;;;;10.23;7.13;;;;;;;16.89;52.24;100972.19;10452692;28;20032;-60
2024/03/08 12:08:12;;;;;;;14.60;6.97;;;;;;;16.90;51.07;100968.41;10451617;28;20097;-60
2024/03/08 12:13:14;;;;;;;9.15;6.65;;;;;;;16.88;52.05;100967.91;10451140;28;20076;-60
2024/03/08 12:18:14;;;;;;;9.45;6.93;;;;;;;16.87;50.74;100960.94;10452832;28;20017;-59
2024/03/08 12:23:16;;;;;;;8.90;6.45;;;;;;;16.88;51.33;100953.72;10450820;28;20024;-60
2024/03/08 12:28:19;;;;;;;11.15;7.13;;;;;;;16.88;50.41;100948.34;10450635;28;20028;-60
2024/03/08 12:33:19;;;;;;;9.80;6.80;;;;;;;16.86;50.99;100932.56;10451676;28;20084;-59
2024/03/08 12:38:24;;;;;;;11.20;7.80;;;;;;;16.87;51.22;100928.00;10451826;28;20503;-59
2024/03/08 12:43:25;;;;;;;9.63;7.32;;;;;;;16.85;51.32;100922.94;10449989;28;20027;-60
2024/03/08 12:48:25;;;;;;;12.68;8.20;;;;;;;16.85;50.50;100917.59;10450917;28;20028;-59
2024/03/08 12:53:28;;;;;;;8.63;6.40;;;;;;;16.84;50.03;100899.13;10442664;28;20032;-60
2024/03/08 12:58:29;;;;;;;11.80;7.72;;;;;;;16.85;51.62;100900.72;10434077;28;20279;-61
2024/03/08 13:03:29;;;;;;;12.80;8.18;;;;;;;16.84;50.16;100896.44;10449874;28;20495;-60
2024/03/08 13:08:31;;;;;;;10.93;7.23;;;;;;;16.82;49.66;100891.38;10438218;28;20021;-60
2024/03/08 13:13:33;;;;;;;14.10;8.02;;;;;;;16.83;51.14;100892.16;10448537;28;20307;-61
2024/03/08 13:18:33;;;;;;;11.45;7.50;;;;;;;16.87;51.01;100872.56;10450142;28;20644;-58
2024/03/08 13:23:39;;;;;;;17.40;7.72;;;;;;;16.88;50.09;100870.69;10449677;28;20029;-59
2024/03/08 13:28:39;;;;;;;17.52;8.27;;;;;;;16.85;49.81;100861.34;10435460;28;20052;-58
2024/03/08 13:33:41;;;;;;;11.57;7.95;;;;;;;16.81;49.72;100860.31;10448905;28;20104;-58
2024/03/08 13:38:45;;;;;;;9.82;7.15;;;;;;;16.80;49.73;100852.53;10448652;28;20074;-58
2024/03/08 13:43:49;;;;;;;10.32;6.90;;;;;;;16.78;50.19;100841.31;10447225;28;20025;-58
2024/03/08 13:48:50;;;;;;;11.57;7.85;;;;;;;16.77;50.65;100832.47;10447668;28;20036;-58
2024/03/08 13:53:50;;;;;;;12.88;7.05;;;;;;;16.78;50.32;100814.53;10447735;28;20024;-58
2024/03/08 13:58:51;;;;;;;11.20;7.33;;;;;;;16.79;49.73;100811.56;10447662;28;20025;-58
2024/03/08 14:03:51;;;;;;;9.30;7.43;;;;;;;16.80;50.70;100809.69;10445790;28;20283;-58
2024/03/08 14:08:53;;;;;;;10.27;7.10;;;;;;;16.76;51.32;100792.59;10446922;28;20726;-58
2024/03/08 14:13:53;;;;;;;8.77;6.43;;;;;;;16.77;51.64;100792.31;10446316;28;20360;-58
2024/03/08 14:18:53;;;;;;;10.97;6.97;;;;;;;16.75;51.40;100778.41;10445819;28;20021;-57
2024/03/08 14:23:54;;;;;;;11.93;6.27;;;;;;;16.76;50.38;100758.59;10446472;28;20367;-57
2024/03/08 14:28:54;;;;;;;15.52;7.78;;;;;;;16.76;50.45;100752.44;10446533;28;20795;-58
2024/03/08 14:33:56;;;;;;;10.87;7.07;;;;;;;16.75;51.64;100748.94;10446094;28;20401;-58
2024/03/08 14:38:57;;;;;;;9.35;6.82;;;;;;;16.75;50.25;100729.41;10446534;28;20279;-58
2024/03/08 14:43:57;;;;;;;8.60;6.43;;;;;;;16.76;51.42;100736.38;10445658;28;20048;-58
2024/03/08 14:48:57;;;;;;;8.63;6.07;;;;;;;16.76;51.67;100739.84;10446196;28;20112;-58
2024/03/08 14:53:58;;;;;;;9.03;6.20;;;;;;;16.75;51.44;100730.22;10445699;28;20981;-58
2024/03/08 14:58:59;;;;;;;10.27;6.70;;;;;;;16.75;51.15;100711.47;10445884;28;20274;-58
2024/03/08 15:04:08;;;;;;;14.32;6.68;;;;;;;16.75;51.92;100710.66;10445787;28;20336;-58
2024/03/08 15:09:12;;;;;;;7.47;5.78;;;;;;;16.73;51.34;100697.56;10432686;28;20079;-58
2024/03/08 15:14:13;;;;;;;6.97;5.13;;;;;;;16.75;51.35;100699.97;10445890;28;20056;-58
2024/03/08 15:19:15;;;;;;;7.43;5.97;;;;;;;16.75;51.25;100681.22;10452304;28;20527;-58
2024/03/08 15:24:20;;;;;;;8.30;6.13;;;;;;;16.75;50.98;100673.19;10453066;28;20071;-57
2024/03/08 15:29:26;;;;;;;7.35;5.57;;;;;;;16.72;51.85;100671.88;10453475;28;20500;-58
2024/03/08 15:34:26;;;;;;;9.55;5.80;;;;;;;16.72;51.13;100661.16;10452384;28;20056;-58
2024/03/08 15:39:26;;;;;;;7.47;5.68;;;;;;;16.70;51.77;100649.94;10451336;28;20139;-57
2024/03/08 15:44:28;;;;;;;7.87;5.10;;;;;;;16.70;51.23;100649.16;10452488;28;20472;-58
2024/03/08 15:49:28;;;;;;;7.60;5.25;;;;;;;16.69;51.55;100645.66;10452566;28;20370;-58
2024/03/08 15:54:29;;;;;;;7.88;5.35;;;;;;;16.69;50.85;100648.34;10451783;28;20052;-58
2024/03/08 15:59:33;;;;;;;9.40;5.73;;;;;;;16.67;51.04;100651.28;10451840;28;20024;-58
2024/03/08 16:04:33;;;;;;;9.10;5.68;;;;;;;16.64;51.29;100622.41;10451789;28;20366;-58
2024/03/08 16:09:34;;;;;;;6.73;5.77;;;;;;;16.62;50.62;100618.41;10450574;28;20028;-58
2024/03/08 16:14:38;;;;;;;7.18;5.82;;;;;;;16.61;51.80;100617.63;10450578;28;20287;-58
2024/03/08 16:19:41;;;;;;;10.77;5.95;;;;;;;16.61;51.64;100614.13;10451420;28;20097;-57
2024/03/08 16:24:43;;;;;;;5.90;5.30;;;;;;;16.60;52.02;100624.06;10450723;28;20474;-58
2024/03/08 16:29:44;;;;;;;7.75;4.95;;;;;;;16.60;51.04;100615.22;10449819;28;20036;-57
2024/03/08 16:34:45;;;;;;;6.90;5.03;;;;;;;16.63;51.54;100604.75;10449713;28;20099;-58
2024/03/08 16:39:45;;;;;;;6.30;5.40;;;;;;;16.66;51.53;100606.84;10450619;28;20017;-58
2024/03/08 16:44:45;;;;;;;6.07;4.83;;;;;;;16.70;51.42;100606.31;10449841;28;20020;-57
2024/03/08 16:49:46;;;;;;;7.77;5.93;;;;;;;16.71;50.99;100608.72;10450102;28;20295;-58
2024/03/08 16:54:46;;;;;;;7.32;4.90;;;;;;;16.74;51.60;100613.50;10450312;28;20290;-57
2024/03/08 16:59:47;;;;;;;6.00;5.17;;;;;;;16.75;50.49;100601.69;10449871;28;20021;-58
2024/03/08 17:04:48;;;;;;;8.65;5.78;;;;;;;16.79;51.11;100596.56;10449225;28;20307;-58
2024/03/08 17:09:48;;;;;;;8.48;5.53;;;;;;;16.78;50.60;100603.78;10449220;28;20043;-57
2024/03/08 17:14:49;;;;;;;6.10;5.00;;;;;;;16.77;51.73;100606.75;10447592;28;20061;-58
2024/03/08 17:19:50;;;;;;;5.80;4.13;;;;;;;16.80;50.33;100601.63;10448648;28;20267;-58
2024/03/08 17:24:50;;;;;;;5.60;4.40;;;;;;;16.80;50.92;100596.25;10448630;28;20032;-58
2024/03/08 17:29:51;;;;;;;5.78;4.72;;;;;;;16.84;50.88;100601.88;10447233;28;20021;-58
2024/03/08 17:34:51;;;;;;;5.90;5.03;;;;;;;16.82;50.95;100607.50;10446800;28;20032;-60
2024/03/08 17:39:55;;;;;;;5.50;4.60;;;;;;;16.82;51.30;100599.47;10448136;28;20021;-58
2024/03/08 17:44:57;;;;;;;6.38;4.40;;;;;;;16.88;50.81;100610.91;10447235;28;20275;-58
2024/03/08 17:49:57;;;;;;;6.22;4.85;;;;;;;16.90;50.13;100600.72;10446412;28;20029;-58
2024/03/08 17:54:58;;;;;;;6.97;5.50;;;;;;;16.89;50.40;100596.44;10447421;28;20427;-58
2024/03/08 17:59:58;;;;;;;5.90;5.28;;;;;;;16.94;50.60;100599.06;10447245;28;20272;-58
2024/03/08 18:05:00;;;;;;;5.53;3.97;;;;;;;16.94;50.60;100596.38;10444002;28;20063;-58
2024/03/08 18:10:01;;;;;;;5.30;4.35;;;;;;;16.92;50.78;100593.97;10444083;28;20287;-58
2024/03/08 18:15:01;;;;;;;6.00;4.55;;;;;;;16.93;50.36;100603.63;10442406;28;20028;-58
2024/03/08 18:20:02;;;;;;;4.43;4.00;;;;;;;16.93;51.20;100595.59;10442739;28;20313;-58
2024/03/08 18:25:02;;;;;;;6.78;5.38;;;;;;;16.95;51.12;100592.63;10443542;28;20024;-57
2024/03/08 18:30:04;;;;;;;6.47;5.13;;;;;;;16.97;50.32;100585.09;10443638;28;20562;-57
2024/03/08 18:35:05;;;;;;;5.75;4.53;;;;;;;17.01;50.02;100574.59;10443159;28;20218;-58
2024/03/08 18:40:19;;;;;;;6.65;4.78;;;;;;;17.00;50.31;100563.09;10443524;28;20325;-58
2024/03/08 18:45:21;;;;;;;6.57;4.80;;;;;;;16.99;50.20;100563.38;10442857;28;20271;-58
2024/03/08 18:50:28;;;;;;;5.05;4.50;;;;;;;17.00;50.73;100560.41;10446510;28;20067;-58
2024/03/08 18:55:28;;;;;;;5.30;4.45;;;;;;;16.98;51.02;100559.91;10451668;28;20286;-59
2024/03/08 19:00:29;;;;;;;5.35;4.05;;;;;;;17.00;51.27;100555.06;10452060;28;20055;-57
2024/03/08 19:05:32;;;;;;;5.72;4.40;;;;;;;16.99;50.62;100558.03;10450865;28;20031;-57
2024/03/08 19:10:34;;;;;;;6.25;4.43;;;;;;;16.97;50.88;100549.47;10450911;28;20094;-58
2024/03/08 19:15:34;;;;;;;4.93;4.07;;;;;;;16.99;50.29;100549.97;10450510;28;20037;-58
2024/03/08 19:20:36;;;;;;;5.78;4.28;;;;;;;16.98;50.04;100545.72;10450760;28;20029;-57
2024/03/08 19:25:40;;;;;;;5.18;3.95;;;;;;;17.01;49.92;100539.78;10450268;28;20096;-58
2024/03/08 19:30:41;;;;;;;7.18;4.50;;;;;;;17.01;49.90;100537.09;10449299;28;20044;-57
2024/03/08 19:35:42;;;;;;;5.68;4.22;;;;;;;16.96;49.80;100535.28;10450404;28;20071;-58
2024/03/08 19:40:43;;;;;;;5.43;4.53;;;;;;;17.01;50.87;100535.22;10450784;28;20031;-57
2024/03/08 19:45:45;;;;;;;4.40;3.55;;;;;;;17.00;49.96;100522.13;10449392;28;20055;-58
2024/03/08 19:50:45;;;;;;;6.15;3.97;;;;;;;16.96;51.36;100524.59;10449548;28;20116;-57
2024/03/08 19:55:50;;;;;;;6.95;5.03;;;;;;;17.00;50.99;100519.44;10448960;28;20291;-58
2024/03/08 20:00:51;;;;;;;5.53;4.10;;;;;;;17.01;50.37;100513.78;10447803;28;20025;-58
2024/03/08 20:05:53;;;;;;;4.93;4.30;;;;;;;16.98;50.74;100517.06;10447434;28;20025;-58
2024/03/08 20:10:55;;;;;;;6.32;4.70;;;;;;;17.00;50.24;100509.50;10448919;28;20143;-57
2024/03/08 20:15:56;;;;;;;5.95;4.82;;;;;;;17.06;50.87;100515.63;10448384;28;20127;-57
2024/03/08 20:20:57;;;;;;;5.97;4.25;;;;;;;17.03;50.97;100516.16;10430520;28;20498;-58
2024/03/08 20:25:57;;;;;;;5.82;4.50;;;;;;;17.02;49.78;100511.91;10447736;28;20036;-57
2024/03/08 20:30:58;;;;;;;6.97;5.25;;;;;;;17.01;50.65;100507.63;10448035;28;20056;-57
2024/03/08 20:35:58;;;;;;;5.25;4.25;;;;;;;17.01;49.48;100502.28;10447332;28;20111;-58
2024/03/08 20:40:59;;;;;;;5.37;4.00;;;;;;;16.99;49.54;100493.75;10470116;28;20027;-60
2024/03/08 20:46:00;;;;;;;5.57;4.30;;;;;;;17.00;49.99;100493.44;10466551;28;20762;-56
2024/03/08 20:51:01;;;;;;;6.35;5.00;;;;;;;17.10;50.19;100487.16;10454752;28;20067;-56
2024/03/08 20:56:10;;;;;;;6.00;4.47;;;;;;;17.09;49.72;100482.88;10449618;28;20029;-58
2024/03/08 21:01:11;;;;;;;8.05;5.43;;;;;;;17.08;49.67;100467.91;10437533;28;20028;-58
2024/03/08 21:06:17;;;;;;;6.65;5.22;;;;;;;17.04;50.04;100474.91;10448110;28;20060;-58
2024/03/08 21:11:18;;;;;;;9.07;5.35;;;;;;;16.97;50.34;100463.78;10449920;28;20041;-58
2024/03/08 21:16:18;;;;;;;7.60;5.28;;;;;;;16.94;49.23;100468.63;10450501;28;20033;-57
2024/03/08 21:21:18;;;;;;;8.25;4.93;;;;;;;16.96;49.34;100465.66;10450205;28;20039;-58
2024/03/08 21:26:19;;;;;;;6.33;4.97;;;;;;;16.98;49.50;100462.69;10450347;28;20027;-58
2024/03/08 21:31:23;;;;;;;7.43;5.35;;;;;;;17.04;49.93;100464.19;10449539;28;20286;-58
2024/03/08 21:36:23;;;;;;;7.97;6.13;;;;;;;17.07;49.00;100458.28;10449922;28;20033;-58
2024/03/08 21:41:24;;;;;;;6.82;5.10;;;;;;;17.05;49.45;100457.75;10449659;28;20029;-58
2024/03/08 21:46:24;;;;;;;6.57;5.13;;;;;;;17.08;49.51;100457.19;10449611;28;20051;-58
2024/03/08 21:51:24;;;;;;;6.47;4.23;;;;;;;17.09;49.76;100456.88;10448832;28;20299;-57
2024/03/08 21:56:25;;;;;;;7.30;4.67;;;;;;;17.05;49.85;100452.38;10449400;28;20356;-58
2024/03/08 22:01:25;;;;;;;6.95;4.35;;;;;;;17.05;49.76;100455.06;10447412;28;20325;-58
2024/03/08 22:06:27;;;;;;;7.20;5.77;;;;;;;17.08;49.50;100459.88;10449082;28;20032;-58
2024/03/08 22:11:27;;;;;;;5.68;4.50;;;;;;;17.04;49.97;100462.31;10446773;28;20299;-57
2024/03/08 22:16:28;;;;;;;7.07;5.40;;;;;;;17.10;49.25;100455.00;10448282;28;20032;-58
2024/03/08 22:21:28;;;;;;;7.13;5.03;;;;;;;17.09;48.89;100453.41;10448053;28;20341;-57
2024/03/08 22:26:31;;;;;;;6.23;5.20;;;;;;;17.05;49.89;100449.72;10447146;28;20025;-59
2024/03/08 22:31:35;;;;;;;5.00;4.32;;;;;;;17.07;50.30;100440.31;10447708;28;20275;-57
2024/03/08 22:36:36;;;;;;;6.78;4.90;;;;;;;17.04;48.92;100432.84;10448092;28;20120;-58
2024/03/08 22:41:39;;;;;;;5.80;5.10;;;;;;;17.11;49.10;100432.47;10447548;28;20032;-58
2024/03/08 22:46:40;;;;;;;6.47;5.35;;;;;;;17.12;49.34;100436.75;10447795;28;20366;-58
2024/03/08 22:51:40;;;;;;;5.97;4.43;;;;;;;17.06;49.49;100416.50;10447515;28;20021;-58
2024/03/08 22:56:43;;;;;;;5.88;4.60;;;;;;;17.04;50.60;100416.78;10441047;28;20694;-58
2024/03/08 23:01:45;;;;;;;5.80;5.00;;;;;;;17.08;49.77;100412.44;10447032;28;20029;-58
2024/03/08 23:06:45;;;;;;;6.60;4.90;;;;;;;17.05;49.66;100407.66;10447064;28;20049;-58